Home > Products > Valid Products > TAF

000
FTUS46 KPDT 240500
TAFPSC
TAF
KPSC 240520Z 2406/2506 19008KT P6SM SCT080 OVC120
     FM241000 VRB05KT P6SM SCT080 OVC120
     FM242000 02006KT P6SM BKN080 OVC100
     FM250100 02008KT P6SM -SHRA OVC060=



000
FTUS46 KPDT 240500
TAFYKM
TAF
KYKM 240520Z 2406/2506 28006KT P6SM SCT070 OVC120
     FM242000 10006KT P6SM BKN070 OVC120
     FM250100 VRB04KT P6SM -RA OVC050=



000
FTUS46 KPDT 240500
TAFPDT
TAF
KPDT 240520Z 2406/2506 VRB03KT P6SM FEW060 SCT080 OVC120
     FM241500 11004KT P6SM BKN080 OVC100
     FM242100 03007KT P6SM -SHRA BKN060 OVC080
     FM250200 VRB05KT P6SM -SHRA OVC050=



000
FTUS46 KPDT 240500
TAFDLS
TAF
KDLS 240520Z 2406/2506 VRB03KT P6SM FEW060 BKN090 OVC120
     FM241600 07005KT P6SM BKN080 OVC100
     FM242000 08006KT P6SM -SHRA OVC050=



000
FTUS46 KPDT 240500
TAFALW
TAF
KALW 240520Z 2406/2506 18005KT P6SM FEW060 SCT080 OVC120
     FM241600 06004KT P6SM BKN080 OVC100
     FM242100 01005KT P6SM -SHRA BKN060 OVC080
     FM250200 07006KT P6SM -SHRA OVC050=



000
FTUS46 KPDT 240500
TAFRDM
TAF
KRDM 240520Z 2406/2506 16005KT P6SM SCT060 OVC120
     FM241400 VRB05KT P6SM -RA OVC060
     FM241900 36007KT P6SM -RA OVC030
     FM250200 18006KT P6SM BKN050=



000
FTUS46 KPDT 232300
TAFPDT
TAF
KPDT 232320Z 2400/2424 16006KT P6SM BKN060 OVC090
     FM240200 VRB06KT P6SM BKN070 BKN200
     FM241200 11006KT P6SM VCSH BKN050 BKN150=



000
FTUS46 KPDT 232300
TAFPSC
TAF
KPSC 232320Z 2400/2424 23011KT P6SM BKN080 BKN200
     FM240900 VRB05KT P6SM BKN080 BKN200
     FM242000 02006KT P6SM BKN070 BKN150=



000
FTUS46 KPDT 232300
TAFYKM
TAF
KYKM 232320Z 2400/2424 28008KT P6SM FEW045 SCT070
     FM240600 28006KT P6SM SCT080 SCT200
     FM242000 07006KT P6SM BKN080 BKN150=



000
FTUS46 KPDT 232300
TAFRDM
TAF
KRDM 232320Z 2400/2424 25008KT P6SM SCT060 BKN200
     FM240300 16005KT P6SM BKN070 BKN200
     FM240900 16005KT P6SM -RA OVC045
     FM242100 33008KT P6SM -RA OVC030=



000
FTUS46 KPDT 232300
TAFALW
TAF
KALW 232320Z 2400/2424 20011KT P6SM BKN050 OVC070
     FM240600 16006KT P6SM SCT080 BKN200
     FM241800 16006KT P6SM VCSH BKN080 BKN200=



000
FTUS46 KPDT 232300
TAFDLS
TAF
KDLS 232320Z 2400/2424 31011G20KT P6SM SCT070 BKN200
     FM240200 30006KT P6SM SCT060 BKN200
     FM240900 VRB05KT P6SM VCSH BKN040 BKN200
     FM241800 09005KT P6SM -SHRA BKN070 BKN150=



000
FTUS46 KPDT 232100 AAA
TAFRDM
TAF AMD
KRDM 232132Z 2322/2418 24011KT P6SM SCT070 BKN200
     FM240300 16005KT P6SM BKN070 BKN200
     FM240900 16005KT P6SM -RA OVC045=



000
FTUS46 KPDT 232000 AAA
TAFALW
TAF AMD
KALW 232004Z 2320/2418 29010G20KT P6SM -SHRA SCT015 BKN020 OVC030
     FM240000 20010KT P6SM BKN070 BKN200
     FM240900 15006KT P6SM SCT070 BKN200=



000
FTUS46 KPDT 231900 AAA
TAFPDT
TAF AMD
KPDT 231901Z 2319/2418 30014KT P6SM -SHRA OVC070
      TEMPO 2319/2320 6SM BR BKN005
     FM232000 26015G25KT P6SM -SHRA BKN040 OVC070
     FM240300 VRB06KT P6SM VCSH BKN070 BKN200=



000
FTUS46 KPDT 231900 AAA
TAFPDT
TAF AMD
KPDT 231901Z 2319/2418 30014KT P6SM -SHRA OVC070
      TEMPO 2319/2320 6SM BR BKN005
     FM232000 26015G25KT P6SM -SHRA BKN040 OVC070
     FM240300 VRB06KT P6SM VCSH BKN070 BKN200=



000
FTUS46 KPDT 231700
TAFDLS
TAF
KDLS 231722Z 2318/2418 31011KT P6SM -SHRA OVC060
     FM240200 30006KT P6SM VCSH BKN060 BKN200
     FM240900 VRB05KT P6SM SCT040 BKN200=



000
FTUS46 KPDT 231700
TAFPDT
TAF
KPDT 231722Z 2318/2418 12007KT P6SM -SHRA OVC070
     FM232000 26012G20KT P6SM -SHRA BKN040 OVC070
     FM240300 VRB06KT P6SM VCSH BKN070 BKN200=



000
FTUS46 KPDT 231700
TAFRDM
TAF
KRDM 231722Z 2318/2418 20011KT P6SM -SHRA BKN060 OVC080
      TEMPO 2318/2320 2SM RA BR BKN040 OVC050
     FM232100 24015G25KT P6SM BKN050 BKN200
     FM240300 16005KT P6SM BKN070 BKN200
     FM240900 16005KT P6SM -RA OVC045=



000
FTUS46 KPDT 231700
TAFYKM
TAF
KYKM 231722Z 2318/2418 30006KT P6SM -SHRA FEW070 BKN090
     FM232100 23011KT P6SM SCT080
     FM240200 27006KT P6SM SCT080
     FM241200 28006KT P6SM SCT200=



000
FTUS46 KPDT 231700
TAFPSC
TAF
KPSC 231722Z 2318/2418 VRB06KT P6SM -SHRA BKN070 OVC100
     FM232000 22012G20KT P6SM BKN090
     FM240300 22007KT P6SM BKN100
     FM240900 VRB05KT P6SM SCT090 BKN200=



000
FTUS46 KPDT 231700
TAFALW
TAF
KALW 231722Z 2318/2418 VRB05KT P6SM -SHRA OVC070
     FM232000 22010G20KT P6SM -SHRA BKN040 OVC070
     FM240000 20010KT P6SM BKN070 BKN200
     FM240900 15006KT P6SM SCT070 BKN200=



000
FTUS46 KPDT 231100
TAFALW
TAF
KALW 231120Z 2312/2412 VRB06KT P6SM -SHRA SCT025 BKN040 OVC060
     FM231600 24010KT P6SM VCSH BKN060 OVC100
     FM232000 21013G25KT P6SM VCSH BKN040 OVC070
     FM240300 19010KT P6SM BKN070 BKN200=



000
FTUS46 KPDT 231100
TAFRDM
TAF
KRDM 231120Z 2312/2412 21011KT P6SM VCSH FEW040 BKN060 OVC090
     FM232300 24015G25KT P6SM SCT050 BKN070
     FM240500 18005KT P6SM BKN070=



000
FTUS46 KPDT 231100
TAFPDT
TAF
KPDT 231120Z 2312/2412 VRB06KT P6SM -SHRA SCT025 OVC060
     FM231600 26009KT P6SM VCSH BKN060 OVC100
     FM232100 26012G20KT P6SM VCSH BKN040 BKN070 BKN120
     FM240400 23008KT P6SM BKN070 BKN200=



000
FTUS46 KPDT 231100
TAFDLS
TAF
KDLS 231120Z 2312/2412 VRB06KT P6SM -SHRA OVC050
     FM231800 31012KT P6SM SCT060 BKN080
     FM240200 30007KT P6SM BKN080 BKN200
     FM241000 VRB05KT P6SM SCT080 BKN200=



000
FTUS46 KPDT 231100
TAFYKM
TAF
KYKM 231120Z 2312/2412 25008KT P6SM FEW050 BKN080
     FM232100 25010KT P6SM SCT080
     FM240200 27007KT P6SM SCT080
     FM240800 27007KT P6SM BKN200=



000
FTUS46 KPDT 231100
TAFPSC
TAF
KPSC 231120Z 2312/2412 VRB06KT P6SM VCSH SCT070 OVC100
     FM232000 23015G25KT P6SM BKN090
     FM240300 22008KT P6SM BKN100
     FM240700 VRB06KT P6SM BKN080 BKN200=



000
FTUS46 KPDT 230800 AAA
TAFPDT
TAF AMD
KPDT 230850Z 2309/2406 28013KT P6SM -SHRA SCT060 OVC070
     FM231200 26009KT P6SM VCSH OVC070
     FM232000 26012G20KT P6SM VCSH BKN070
     FM240300 23008KT P6SM BKN070=



000
FTUS46 KPDT 230700 AAA
TAFPSC
TAF AMD
KPSC 230717Z 2307/2406 23010KT P6SM VCSH SCT070 OVC090
     FM231200 19010KT P6SM SCT070 BKN090
     FM232000 23015G25KT P6SM BKN090
     FM240300 22008KT P6SM SCT100=



000
FTUS46 KPDT 230500
TAFDLS
TAF
KDLS 230520Z 2306/2406 VRB04KT P6SM -SHRA SCT045 BKN060 OVC080
     FM231800 31012KT P6SM SCT060 BKN080
     FM240200 30007KT P6SM BKN080=



000
FTUS46 KPDT 230500
TAFPDT
TAF
KPDT 230520Z 2306/2406 18013G24KT P6SM -SHRA SCT060 OVC070
     FM231200 19009KT P6SM VCSH OVC070
     FM232000 26012G20KT P6SM VCSH BKN070
     FM240300 23008KT P6SM BKN070=



000
FTUS46 KPDT 230500
TAFYKM
TAF
KYKM 230520Z 2306/2406 19010G20KT P6SM VCSH FEW050 OVC080
     FM231000 21008KT P6SM FEW050 BKN080
     FM232100 25010KT P6SM SCT080
     FM240200 27007KT P6SM SCT080=



000
FTUS46 KPDT 230500
TAFALW
TAF
KALW 230520Z 2306/2406 16018G30KT P6SM -SHRA SCT060 OVC080
     FM231200 17012KT P6SM VCSH OVC080
     FM232000 21013G25KT P6SM VCSH BKN070
     FM240300 19010KT P6SM BKN070=



000
FTUS46 KPDT 230500
TAFPSC
TAF
KPSC 230520Z 2306/2406 17012KT P6SM VCSH SCT070 OVC090
     FM231200 19010KT P6SM SCT070 BKN090
     FM232000 23015G25KT P6SM BKN090
     FM240300 22008KT P6SM SCT100=



000
FTUS46 KPDT 230500
TAFRDM
TAF
KRDM 230520Z 2306/2406 19011G22KT P6SM VCSH SCT040 BKN060 OVC100
     FM231000 18008KT P6SM FEW040 BKN060
     FM232000 24015G25KT P6SM SCT050 BKN070
     FM240300 18005KT P6SM BKN070=



000
FTUS46 KPDT 230200 AAA
TAFPSC
TAF AMD
KPSC 230201Z 2302/2324 16012KT P6SM -RA SCT070 OVC090
     FM230600 19011KT P6SM -SHRA SCT050 OVC070
     FM232000 23015G25KT P6SM VCSH BKN080=



000
FTUS46 KPDT 230200 AAA
TAFPSC
TAF AMD
KPSC 230201Z 2302/2324 16012KT P6SM -RA SCT070 OVC090
     FM230600 19011KT P6SM -SHRA SCT050 OVC070
     FM232000 23015G25KT P6SM VCSH BKN080=



000
FTUS46 KPDT 222300
TAFRDM
TAF
KRDM 222320Z 2300/2324 20015G25KT P6SM VCSH SCT060 BKN110
     FM230600 19011KT P6SM -SHRA OVC050
     FM232000 24015G25KT P6SM VCSH BKN080=



000
FTUS46 KPDT 222300
TAFPDT
TAF
KPDT 222320Z 2300/2324 18012G20KT P6SM -SHRA OVC080
     FM230300 18010KT P6SM -SHRA OVC070
     FM231200 19008KT P6SM -SHRA OVC060
     FM232000 25012G20KT P6SM VCSH OVC070=



000
FTUS46 KPDT 222300
TAFALW
TAF
KALW 222320Z 2300/2324 17015G25KT P6SM VCSH BKN100
     FM230200 17015G25KT P6SM -SHRA OVC070
     FM230900 17010KT P6SM -SHRA SCT040 OVC050
     FM232000 21015G25KT P6SM -SHRA OVC060=



000
FTUS46 KPDT 222300
TAFPSC
TAF
KPSC 222320Z 2300/2324 20012KT P6SM -SHRA SCT070 OVC090
     FM230300 19011KT P6SM -SHRA SCT050 OVC070
     FM232000 23015G25KT P6SM VCSH BKN080=



000
FTUS46 KPDT 222300
TAFDLS
TAF
KDLS 222320Z 2300/2324 32006KT P6SM -SHRA OVC080
     FM230600 VRB04KT P6SM -RA OVC035
     FM232000 31010KT P6SM -SHRA BKN040 OVC080=



000
FTUS46 KPDT 222300
TAFYKM
TAF
KYKM 222320Z 2300/2324 VRB05KT P6SM -RA OVC050
     FM230600 23008KT P6SM -SHRA SCT035 OVC050
     FM231200 27006KT P6SM -SHRA SCT040 OVC070
     FM232000 23010KT P6SM VCSH SCT050 BKN100=



000
FTUS46 KPDT 222200 AAB
TAFPSC
TAF AMD
KPSC 222203Z 2222/2318 17015G25KT P6SM -SHRA SCT070 OVC090
     FM230300 19010KT P6SM -SHRA OVC070
     FM231500 21009KT P6SM VCSH BKN080=



000
FTUS46 KPDT 222200 AAA
TAFPDT
TAF AMD
KPDT 222203Z 2222/2318 18012G20KT P6SM -SHRA OVC080
     FM230900 18009KT P6SM -SHRA OVC060=



000
FTUS46 KPDT 222000 AAA
TAFPSC
TAF AMD
KPSC 222007Z 2220/2318 17012KT P6SM -SHRA SCT070 OVC080
     FM230300 19010KT P6SM -SHRA OVC070
     FM231500 21009KT P6SM VCSH BKN080=



000
FTUS46 KPDT 221700
TAFYKM
TAF
KYKM 221720Z 2218/2318 14005KT P6SM VCSH SCT040 OVC050
     FM222200 17008KT P6SM -RA OVC035
     FM230800 24008KT P6SM -SHRA SCT035 OVC080
     FM231200 28006KT P6SM VCSH SCT040 OVC080=



000
FTUS46 KPDT 221700
TAFDLS
TAF
KDLS 221720Z 2218/2318 VRB06KT P6SM -SHRA BKN060 OVC080
     FM230500 VRB05KT P6SM -RA OVC035=



000
FTUS46 KPDT 221700
TAFPDT
TAF
KPDT 221720Z 2218/2318 15010KT P6SM -SHRA OVC070
     FM230900 18009KT P6SM -SHRA OVC060=



000
FTUS46 KPDT 221700
TAFALW
TAF
KALW 221720Z 2218/2318 17015G22KT P6SM VCSH OVC070
     FM230200 17013G20KT P6SM -SHRA OVC060=



000
FTUS46 KPDT 221700
TAFPSC
TAF
KPSC 221720Z 2218/2318 10011KT P6SM -SHRA SCT070 OVC090
     FM230300 19010KT P6SM -SHRA OVC070
     FM231500 21009KT P6SM VCSH BKN080=



000
FTUS46 KPDT 221700
TAFRDM
TAF
KRDM 221720Z 2218/2318 17012KT P6SM BKN080 OVC090
     FM222000 18014KT P6SM VCSH BKN050 OVC080
     FM230000 18012KT P6SM -SHRA OVC050
     FM230900 18010KT P6SM -SHRA OVC040=



000
FTUS46 KPDT 221700
TAFYKM
TAF
KYKM 221720Z 2218/2318 14005KT P6SM VCSH SCT040 OVC050
     FM222200 17008KT P6SM -RA OVC035
     FM230800 24008KT P6SM -SHRA SCT035 OVC080
     FM231200 28006KT P6SM VCSH SCT040 OVC080=



000
FTUS46 KPDT 221700
TAFPDT
TAF
KPDT 221720Z 2218/2318 15010KT P6SM -SHRA OVC070
     FM230900 18009KT P6SM -SHRA OVC060=



000
FTUS46 KPDT 221700
TAFDLS
TAF
KDLS 221720Z 2218/2318 VRB06KT P6SM -SHRA BKN060 OVC080
     FM230500 VRB05KT P6SM -RA OVC035=



000
FTUS46 KPDT 221700
TAFRDM
TAF
KRDM 221720Z 2218/2318 17012KT P6SM BKN080 OVC090
     FM222000 18014KT P6SM VCSH BKN050 OVC080
     FM230000 18012KT P6SM -SHRA OVC050
     FM230900 18010KT P6SM -SHRA OVC040=



000
FTUS46 KPDT 221700
TAFPSC
TAF
KPSC 221720Z 2218/2318 10011KT P6SM -SHRA SCT070 OVC090
     FM230300 19010KT P6SM -SHRA OVC070
     FM231500 21009KT P6SM VCSH BKN080=



000
FTUS46 KPDT 221700
TAFALW
TAF
KALW 221720Z 2218/2318 17015G22KT P6SM VCSH OVC070
     FM230200 17013G20KT P6SM -SHRA OVC060=



000
FTUS46 KPDT 221600 AAA
TAFALW
TAF AMD
KALW 221605Z 2216/2312 17015G22KT P6SM VCSH OVC070
     FM221700 17015G22KT P6SM -SHRA OVC060
     FM230200 15012KT P6SM -RA OVC060=



000
FTUS46 KPDT 221600 AAA
TAFALW
TAF AMD
KALW 221605Z 2216/2312 17015G22KT P6SM VCSH OVC070
     FM221700 17015G22KT P6SM -SHRA OVC060
     FM230200 15012KT P6SM -RA OVC060=



000
FTUS46 KPDT 221100
TAFPDT
TAF
KPDT 221130Z 2212/2312 14006KT P6SM OVC080
     FM221700 18010KT P6SM VCSH OVC060
     FM230100 15014KT P6SM -SHRA OVC060=



000
FTUS46 KPDT 221100
TAFALW
TAF
KALW 221130Z 2212/2312 17010KT P6SM OVC100
     FM221800 15012KT P6SM -SHRA OVC080
     FM230200 15012KT P6SM -RA OVC060=



000
FTUS46 KPDT 221100
TAFRDM
TAF
KRDM 221130Z 2212/2312 17012KT P6SM OVC060
     FM222000 18014KT P6SM VCSH BKN050 OVC080
     FM230000 18010KT P6SM -SHRA OVC040=



000
FTUS46 KPDT 221100
TAFDLS
TAF
KDLS 221130Z 2212/2312 VRB04KT P6SM VCSH OVC070
     FM221600 VRB05KT P6SM -RA OVC050
     FM230500 VRB05KT P6SM -RA OVC035=



000
FTUS46 KPDT 221100
TAFYKM
TAF
KYKM 221130Z 2212/2312 VRB05KT P6SM OVC060
     FM221500 16005KT P6SM VCSH BKN045 OVC060
     FM222200 19008KT P6SM -RA OVC040=



000
FTUS46 KPDT 221100
TAFPSC
TAF
KPSC 221130Z 2212/2312 VRB04KT P6SM OVC090
     FM221600 19011KT P6SM VCSH OVC080
     FM222300 18010KT P6SM -SHRA OVC070=



000
FTUS46 KPDT 220500
TAFPSC
TAF
KPSC 220528Z 2206/2306 VRB04KT P6SM BKN120
     FM221100 VRB04KT P6SM OVC100
     FM221600 19011KT P6SM VCSH OVC080
     FM230000 18010KT P6SM -SHRA OVC070=



000
FTUS46 KPDT 220500
TAFRDM
TAF
KRDM 220528Z 2206/2306 16008KT P6SM OVC120
     FM221000 17012KT P6SM SCT080 OVC100
     FM222000 18014KT P6SM -SHRA BKN050 OVC080
     FM230000 18010KT P6SM OVC040=



000
FTUS46 KPDT 220500
TAFALW
TAF
KALW 220528Z 2206/2306 14008KT P6SM BKN120
     FM221200 17010KT P6SM OVC100
     FM221800 17014KT P6SM OVC080
     FM230200 15010KT P6SM VCSH OVC060=



000
FTUS46 KPDT 220500
TAFPDT
TAF
KPDT 220528Z 2206/2306 14006KT P6SM BKN120
     FM221000 15008KT P6SM OVC100
     FM221700 18010KT P6SM OVC080
     FM230100 18014KT P6SM VCSH OVC060=



000
FTUS46 KPDT 220500
TAFDLS
TAF
KDLS 220528Z 2206/2306 VRB04KT P6SM OVC100
     FM221000 VRB04KT P6SM -SHRA OVC070
     FM221800 VRB05KT P6SM -RA OVC050
     FM222300 VRB05KT P6SM OVC035=



000
FTUS46 KPDT 220500
TAFYKM
TAF
KYKM 220528Z 2206/2306 VRB06KT P6SM OVC120
     FM221000 VRB05KT P6SM -SHRA BKN060 OVC080
     FM221500 16005KT P6SM -RA BKN045 OVC060
     FM222200 18008KT P6SM -RA OVC040=



000
FTUS46 KPDT 220500
TAFALW
TAF
KALW 220528Z 2206/2306 14008KT P6SM BKN120
     FM221200 17010KT P6SM OVC100
     FM221800 17014KT P6SM OVC080
     FM230200 15010KT P6SM VCSH OVC060=



000
FTUS46 KPDT 220500
TAFPDT
TAF
KPDT 220528Z 2206/2306 14006KT P6SM BKN120
     FM221000 15008KT P6SM OVC100
     FM221700 18010KT P6SM OVC080
     FM230100 18014KT P6SM VCSH OVC060=



000
FTUS46 KPDT 220500
TAFDLS
TAF
KDLS 220528Z 2206/2306 VRB04KT P6SM OVC100
     FM221000 VRB04KT P6SM -SHRA OVC070
     FM221800 VRB05KT P6SM -RA OVC050
     FM222300 VRB05KT P6SM OVC035=



000
FTUS46 KPDT 220500
TAFYKM
TAF
KYKM 220528Z 2206/2306 VRB06KT P6SM OVC120
     FM221000 VRB05KT P6SM -SHRA BKN060 OVC080
     FM221500 16005KT P6SM -RA BKN045 OVC060
     FM222200 18008KT P6SM -RA OVC040=



000
FTUS46 KPDT 220500
TAFPSC
TAF
KPSC 220528Z 2206/2306 VRB04KT P6SM BKN120
     FM221100 VRB04KT P6SM OVC100
     FM221600 19011KT P6SM VCSH OVC080
     FM230000 18010KT P6SM -SHRA OVC070=



000
FTUS46 KPDT 220500
TAFRDM
TAF
KRDM 220528Z 2206/2306 16008KT P6SM OVC120
     FM221000 17012KT P6SM SCT080 OVC100
     FM222000 18014KT P6SM -SHRA BKN050 OVC080
     FM230000 18010KT P6SM OVC040=



000
FTUS46 KPDT 212300
TAFPDT
TAF
KPDT 212320Z 2200/2224 27008KT P6SM SCT070
     FM220200 14006KT P6SM SCT150
     FM221500 16010KT P6SM BKN100=



000
FTUS46 KPDT 212300
TAFALW
TAF
KALW 212320Z 2200/2224 23015G22KT P6SM SCT070
     FM220200 14007KT P6SM SCT180
     FM221100 14007KT P6SM BKN120
     FM221500 17011KT P6SM BKN100=



000
FTUS46 KPDT 212300
TAFDLS
TAF
KDLS 212320Z 2200/2224 32009KT P6SM BKN070
     FM220300 VRB04KT P6SM OVC100
     FM221200 10004KT P6SM -SHRA OVC070
     FM221800 VRB05KT P6SM -RA BKN050 OVC070=



000
FTUS46 KPDT 212300
TAFDLS
TAF
KDLS 212320Z 2200/2224 32009KT P6SM BKN070
     FM220300 VRB04KT P6SM OVC100
     FM221200 10004KT P6SM -SHRA OVC070
     FM221800 VRB05KT P6SM -RA BKN050 OVC070=



000
FTUS46 KPDT 212300
TAFRDM
TAF
KRDM 212320Z 2200/2224 22009KT P6SM SCT050 BKN080
     FM220200 16006KT P6SM BKN120
     FM221100 17010KT P6SM SCT050 OVC100
     FM222000 18012KT P6SM -SHRA BKN050 OVC080=



000
FTUS46 KPDT 212300
TAFPDT
TAF
KPDT 212320Z 2200/2224 27008KT P6SM SCT070
     FM220200 14006KT P6SM SCT150
     FM221500 16010KT P6SM BKN100=



000
FTUS46 KPDT 212300
TAFPSC
TAF
KPSC 212320Z 2200/2224 22015G22KT P6SM FEW120
     FM220200 17007KT P6SM SCT180
     FM220900 17007KT P6SM BKN150
     FM221500 19011KT P6SM OVC100=



000
FTUS46 KPDT 212300
TAFALW
TAF
KALW 212320Z 2200/2224 23015G22KT P6SM SCT070
     FM220200 14007KT P6SM SCT180
     FM221100 14007KT P6SM BKN120
     FM221500 17011KT P6SM BKN100=



000
FTUS46 KPDT 212300
TAFYKM
TAF
KYKM 212320Z 2200/2224 20012G20KT P6SM SCT070
     FM220300 22006KT P6SM BKN070 OVC100
     FM221200 VRB05KT P6SM -SHRA BKN050 OVC080
     FM221800 16005KT P6SM -RA BKN030 OVC060=



000
FTUS46 KPDT 212300
TAFPSC
TAF
KPSC 212320Z 2200/2224 22015G22KT P6SM FEW120
     FM220200 17007KT P6SM SCT180
     FM220900 17007KT P6SM BKN150
     FM221500 19011KT P6SM OVC100=



000
FTUS46 KPDT 212300
TAFYKM
TAF
KYKM 212320Z 2200/2224 20012G20KT P6SM SCT070
     FM220300 22006KT P6SM BKN070 OVC100
     FM221200 VRB05KT P6SM -SHRA BKN050 OVC080
     FM221800 16005KT P6SM -RA BKN030 OVC060=



000
FTUS46 KPDT 212300
TAFRDM
TAF
KRDM 212320Z 2200/2224 22009KT P6SM SCT050 BKN080
     FM220200 16006KT P6SM BKN120
     FM221100 17010KT P6SM SCT050 OVC100
     FM222000 18012KT P6SM -SHRA BKN050 OVC080=



000
FTUS46 KPDT 211800 AAA
TAFPDT
TAF AMD
KPDT 211827Z 2118/2218 26012G20KT P6SM BKN070
     FM220200 15006KT P6SM BKN150
     FM221400 15007KT P6SM OVC100=



000
FTUS46 KPDT 211700
TAFDLS
TAF
KDLS 211728Z 2118/2218 VRB05KT P6SM BKN120
     FM212000 30009KT P6SM BKN070
     FM220300 VRB04KT P6SM BKN090 OVC120
     FM221200 10004KT P6SM -SHRA OVC070=



000
FTUS46 KPDT 211700
TAFRDM
TAF
KRDM 211728Z 2118/2218 23008G15KT P6SM SCT060 BKN120
     FM220100 16006KT P6SM BKN120
     FM220900 17010KT P6SM OVC100=



000
FTUS46 KPDT 211700
TAFPDT
TAF
KPDT 211728Z 2118/2218 18006KT P6SM BKN080
     FM212000 26011KT P6SM BKN080
     FM220200 15006KT P6SM BKN150
     FM221400 15007KT P6SM OVC100=



000
FTUS46 KPDT 211700
TAFALW
TAF
KALW 211728Z 2118/2218 22012G22KT P6SM SCT070 BKN090
     FM220100 14007KT P6SM BKN180
     FM221200 16010KT P6SM BKN100=



000
FTUS46 KPDT 211700
TAFYKM
TAF
KYKM 211728Z 2118/2218 VRB04KT P6SM SCT070
     FM212000 21008KT P6SM SCT070
     FM220200 VRB06KT P6SM BKN070 OVC120
     FM221200 VRB05KT P6SM -SHRA BKN050 OVC100=



000
FTUS46 KPDT 211700
TAFPSC
TAF
KPSC 211728Z 2118/2218 23015G23KT P6SM FEW120
     FM220200 18006KT P6SM BKN200
     FM220900 18006KT P6SM OVC100=



000
FTUS46 KPDT 211400 AAB
TAFYKM
TAF AMD
KYKM 211445Z 2115/2212 27007KT 6SM BR SCT002
     FM211600 VRB06KT P6SM FEW070 OVC200
     FM220200 26007KT P6SM BKN080 OVC120=



000
FTUS46 KPDT 211100 AAA
TAFYKM
TAF AMD
KYKM 211140Z 2112/2212 27006KT 1/2SM FG OVC002
      TEMPO 2114/2116 2SM BR SCT002
     FM211600 VRB06KT P6SM FEW070 OVC200
     FM220200 26007KT P6SM BKN080 OVC120=



000
FTUS46 KPDT 211100 AAA
TAFYKM
TAF AMD
KYKM 211140Z 2112/2212 27006KT 1/2SM FG OVC002
      TEMPO 2114/2116 2SM BR SCT002
     FM211600 VRB06KT P6SM FEW070 OVC200
     FM220200 26007KT P6SM BKN080 OVC120=



000
FTUS46 KPDT 211100
TAFDLS
TAF
KDLS 211129Z 2112/2212 VRB04KT P6SM SCT012 BKN060
     FM211800 31010KT P6SM BKN070 OVC200
     FM220200 30005KT P6SM BKN070 OVC140=



000
FTUS46 KPDT 211100
TAFALW
TAF
KALW 211129Z 2112/2212 20010KT P6SM BKN060
     FM211700 23012G22KT P6SM FEW060 SCT140
     FM220200 15006KT P6SM OVC200
     FM220800 15006KT P6SM OVC080=



000
FTUS46 KPDT 211100
TAFPSC
TAF
KPSC 211129Z 2112/2212 22008KT P6SM SCT120
     FM211700 23013G23KT P6SM SKC
     FM220200 19008KT P6SM OVC200
     FM220700 17006KT P6SM OVC080=



000
FTUS46 KPDT 211100
TAFYKM
TAF
KYKM 211129Z 2112/2212 27006KT P6SM SCT070
     FM211800 VRB06KT P6SM FEW070 OVC200
     FM220200 26007KT P6SM BKN080 OVC120=



000
FTUS46 KPDT 211100
TAFRDM
TAF
KRDM 211129Z 2112/2212 17007KT P6SM FEW060
     FM212000 24008G15KT P6SM FEW060 OVC200
     FM220100 VRB05KT P6SM BKN060 OVC120=



000
FTUS46 KPDT 211100
TAFPDT
TAF
KPDT 211129Z 2112/2212 16005KT P6SM BKN140
     FM211500 20008KT P6SM SCT060
     FM211700 26012G22KT P6SM FEW060
     FM220200 15005KT P6SM OVC200
     FM220700 15005KT P6SM BKN080=



000
FTUS46 KPDT 211100
TAFYKM
TAF
KYKM 211129Z 2112/2212 27006KT P6SM SCT070
     FM211800 VRB06KT P6SM FEW070 OVC200
     FM220200 26007KT P6SM BKN080 OVC120=



000
FTUS46 KPDT 211100
TAFPDT
TAF
KPDT 211129Z 2112/2212 16005KT P6SM BKN140
     FM211500 20008KT P6SM SCT060
     FM211700 26012G22KT P6SM FEW060
     FM220200 15005KT P6SM OVC200
     FM220700 15005KT P6SM BKN080=



000
FTUS46 KPDT 211100
TAFALW
TAF
KALW 211129Z 2112/2212 20010KT P6SM BKN060
     FM211700 23012G22KT P6SM FEW060 SCT140
     FM220200 15006KT P6SM OVC200
     FM220800 15006KT P6SM OVC080=



000
FTUS46 KPDT 211100
TAFRDM
TAF
KRDM 211129Z 2112/2212 17007KT P6SM FEW060
     FM212000 24008G15KT P6SM FEW060 OVC200
     FM220100 VRB05KT P6SM BKN060 OVC120=



000
FTUS46 KPDT 211100
TAFPSC
TAF
KPSC 211129Z 2112/2212 22008KT P6SM SCT120
     FM211700 23013G23KT P6SM SKC
     FM220200 19008KT P6SM OVC200
     FM220700 17006KT P6SM OVC080=



000
FTUS46 KPDT 211100
TAFDLS
TAF
KDLS 211129Z 2112/2212 VRB04KT P6SM SCT012 BKN060
     FM211800 31010KT P6SM BKN070 OVC200
     FM220200 30005KT P6SM BKN070 OVC140=



    US Dept of Commerce
    National Oceanic and Atmospheric Administration
    National Weather Service
    1325 East West Highway
    Silver Spring, MD 20910
    Page Author: NWS Internet Services Team
Disclaimer
Information Quality
Credits
Glossary
Privacy Policy
Freedom of Information Act (FOIA)
About Us
Career Opportunities